Time;durP1;ratioP1;P1;durP2;ratioP2;P2;SDS_P1;SDS_P2;PMS_P1;PMS_P2;Temp;Humidity;BMP_temperature;BMP_pressure;BME280_temperature;BME280_humidity;BME280_pressure;Samples;Min_cycle;Max_cycle;Signal;HPM_P1;HPM_P2
2022/11/15 06:56:38;;;;;;;;;;;;;;;13.15;70.62;96511.25;4248412;27;10143;-70
2022/11/15 06:58:41;;;;;;;;;;;;;;;13.46;69.83;96515.72;4248898;27;5771;-70
2022/11/15 07:00:44;;;;;;;;;;;;;;;13.68;69.81;96516.13;4243435;27;5799;-70
2022/11/15 07:02:47;;;;;;;;;;;;;;;13.88;69.35;96519.41;4244358;27;5899;-70
2022/11/15 07:04:50;;;;;;;;;;;;;;;14.05;68.82;96518.84;4238542;27;5609;-70
2022/11/15 07:06:52;;;;;;;;;;;;;;;14.16;68.86;96526.06;4233294;27;5080;-70
2022/11/15 07:08:55;;;;;;;;;;;;;;;14.28;68.37;96517.13;4235873;27;5663;-70
2022/11/15 07:10:59;;;;;;;;;;;;;;;14.37;68.32;96524.78;4233999;27;5606;-70
2022/11/15 07:13:03;;;;;;;;;;;;;;;14.42;68.10;96525.75;4234089;27;5772;-70
2022/11/15 07:15:07;;;;;;;;;;;;;;;14.47;67.83;96531.22;4238587;27;6333;-70
2022/11/15 07:17:10;;;;;;;;;;;;;;;14.55;68.01;96536.25;4234328;27;5613;-70
2022/11/15 07:19:13;;;;;;;;;;;;;;;14.60;67.79;96537.41;4236210;27;5816;-70
2022/11/15 07:21:16;;;;;;;;;;;;;;;14.64;67.69;96539.41;4230807;27;5703;-70
2022/11/15 07:23:18;;;;;;;;;;;;;;;14.69;67.57;96533.41;4231151;28;5616;-70
2022/11/15 07:25:21;;;;;;;;;;;;;;;14.71;67.46;96528.69;4237870;27;5760;-70
2022/11/15 07:27:24;;;;;;;;;;;;;;;14.72;67.27;96522.31;4243587;27;5705;-69
2022/11/15 07:29:28;;;;;;;;;;;;;;;14.75;67.03;96519.22;4240880;27;5632;-70
2022/11/15 07:31:31;;;;;;;;;;;;;;;14.77;67.14;96514.47;4246509;27;5590;-70
2022/11/15 07:33:34;;;;;;;;;;;;;;;14.78;67.11;96508.13;4240776;27;6534;-70
2022/11/15 07:35:37;;;;;;;;;;;;;;;14.78;66.99;96514.25;4229662;27;5629;-70
2022/11/15 07:37:40;;;;;;;;;;;;;;;14.76;66.61;96507.53;4232010;27;5681;-70
2022/11/15 07:39:42;;;;;;;;;;;;;;;14.72;66.64;96511.66;4246553;27;5932;-70
2022/11/15 07:41:47;;;;;;;;;;;;;;;14.72;66.86;96512.50;4247687;27;5590;-70
2022/11/15 07:43:52;;;;;;;;;;;;;;;14.76;66.78;96510.19;4247889;27;5742;-70
2022/11/15 07:45:56;;;;;;;;;;;;;;;14.75;66.57;96503.25;4246254;27;5797;-70
2022/11/15 07:48:01;;;;;;;;;;;;;;;14.76;66.48;96499.56;4235358;27;5687;-70
2022/11/15 07:50:05;;;;;;;;;;;;;;;14.76;66.25;96488.91;4238284;27;5665;-70
2022/11/15 07:52:08;;;;;;;;;;;;;;;14.76;66.03;96486.25;4247734;27;5636;-70
2022/11/15 07:54:11;;;;;;;;;;;;;;;14.73;66.07;96478.72;4247721;27;5647;-70
2022/11/15 07:56:14;;;;;;;;;;;;;;;14.74;66.15;96491.00;4241180;27;5707;-70
2022/11/15 07:58:17;;;;;;;;;;;;;;;14.74;65.78;96491.00;4225394;28;5602;-70
2022/11/15 08:00:20;;;;;;;;;;;;;;;14.74;65.71;96497.13;4232657;28;5614;-70
2022/11/15 08:02:26;;;;;;;;;;;;;;;14.75;65.79;96481.97;4230647;27;5678;-70
2022/11/15 08:04:32;;;;;;;;;;;;;;;14.78;65.41;96489.50;4214792;28;5604;-70
2022/11/15 08:06:36;;;;;;;;;;;;;;;14.80;65.40;96479.44;4225242;28;5503;-70
2022/11/15 08:08:38;;;;;;;;;;;;;;;14.81;65.01;96473.06;4234904;28;5533;-70
2022/11/15 08:10:41;;;;;;;;;;;;;;;14.84;64.96;96483.28;4228384;27;5725;-70
2022/11/15 08:12:44;;;;;;;;;;;;;;;14.87;64.94;96490.78;4221723;27;5796;-70
2022/11/15 08:14:48;;;;;;;;;;;;;;;14.90;64.50;96490.34;4230857;27;5602;-70
2022/11/15 08:16:52;;;;;;;;;;;;;;;14.91;64.42;96497.28;4224330;28;5620;-70
2022/11/15 08:18:57;;;;;;;;;;;;;;;14.91;64.34;96485.81;4227355;28;5602;-70
2022/11/15 08:21:01;;;;;;;;;;;;;;;14.88;64.22;96489.75;4235593;28;5597;-70
2022/11/15 08:23:05;;;;;;;;;;;;;;;14.87;63.88;96480.16;4235002;28;5594;-70
2022/11/15 08:25:09;;;;;;;;;;;;;;;14.90;63.72;96485.00;4233178;28;5697;-69
2022/11/15 08:27:22;;;;;;;;;;;;;;;14.92;63.47;96488.25;4219454;28;5723;-69
2022/11/15 08:29:25;;;;;;;;;;;;;;;14.94;63.66;96483.50;4220064;28;5684;-69
2022/11/15 08:31:28;;;;;;;;;;;;;;;14.94;63.40;96480.84;4224548;28;5611;-69
2022/11/15 08:33:36;;;;;;;;;;;;;;;14.97;63.37;96480.41;4236096;28;5609;-69
2022/11/15 08:35:41;;;;;;;;;;;;;;;15.00;63.25;96484.47;4227250;28;5602;-69
2022/11/15 08:37:44;;;;;;;;;;;;;;;15.01;63.16;96481.56;4234148;28;5602;-69
2022/11/15 08:39:48;;;;;;;;;;;;;;;15.00;62.79;96466.63;4226498;28;5629;-70
2022/11/15 08:41:51;;;;;;;;;;;;;;;15.01;62.73;96470.09;4228788;28;5823;-69
2022/11/15 08:43:54;;;;;;;;;;;;;;;15.02;62.68;96463.75;4220455;28;5684;-69
2022/11/15 08:45:57;;;;;;;;;;;;;;;15.02;62.50;96456.56;4227697;28;5701;-69
2022/11/15 08:48:01;;;;;;;;;;;;;;;15.03;62.34;96470.69;4226965;28;5696;-69
2022/11/15 08:50:05;;;;;;;;;;;;;;;15.03;62.33;96466.16;4235621;28;5686;-69
2022/11/15 08:52:09;;;;;;;;;;;;;;;15.05;62.21;96469.41;4235221;28;5594;-69
2022/11/15 08:54:12;;;;;;;;;;;;;;;15.05;62.24;96456.09;4235003;28;5606;-69
2022/11/15 08:56:16;;;;;;;;;;;;;;;15.06;61.95;96451.59;4235522;28;5867;-69
2022/11/15 08:58:18;;;;;;;;;;;;;;;15.05;61.98;96456.09;4235206;28;5772;-70
2022/11/15 09:00:21;;;;;;;;;;;;;;;15.05;61.66;96445.44;4227110;28;5760;-69
2022/11/15 09:02:25;;;;;;;;;;;;;;;15.05;61.51;96445.44;4229999;28;5162;-70
2022/11/15 09:04:28;;;;;;;;;;;;;;;15.08;61.44;96445.00;4230286;27;5628;-69
2022/11/15 09:06:32;;;;;;;;;;;;;;;15.11;61.26;96452.53;4231219;28;5785;-69
2022/11/15 09:08:37;;;;;;;;;;;;;;;15.13;61.24;96445.13;4226887;28;5768;-69
2022/11/15 09:10:50;;;;;;;;;;;;;;;15.13;61.08;96439.00;4232411;27;5663;-69
2022/11/15 09:12:53;;;;;;;;;;;;;;;15.15;60.96;96434.25;4231092;27;5677;-70
2022/11/15 09:14:57;;;;;;;;;;;;;;;15.10;60.75;96432.28;4229760;28;5655;-69
2022/11/15 09:17:01;;;;;;;;;;;;;;;15.11;60.63;96427.75;4216079;28;5683;-69
2022/11/15 09:19:04;;;;;;;;;;;;;;;15.12;60.77;96424.06;4231710;28;5616;-69
2022/11/15 09:21:13;;;;;;;;;;;;;;;15.15;60.51;96424.41;4226273;28;5655;-69
2022/11/15 09:23:17;;;;;;;;;;;;;;;15.15;60.42;96424.41;4228330;28;5749;-69
2022/11/15 09:25:21;;;;;;;;;;;;;;;15.18;60.40;96425.00;4232087;28;5725;-69
2022/11/15 09:27:24;;;;;;;;;;;;;;;15.20;60.42;96430.91;4234050;28;5598;-69
2022/11/15 09:29:27;;;;;;;;;;;;;;;15.19;60.13;96423.97;4226598;28;5618;-69
2022/11/15 09:31:31;;;;;;;;;;;;;;;15.23;60.06;96430.44;4233503;28;5715;-69
2022/11/15 09:33:34;;;;;;;;;;;;;;;15.24;60.12;96426.72;4224114;28;5785;-69
2022/11/15 09:35:38;;;;;;;;;;;;;;;15.23;60.05;96425.91;4233651;28;6303;-69
2022/11/15 09:37:40;;;;;;;;;;;;;;;15.24;59.71;96432.88;4225907;28;5589;-70
2022/11/15 09:39:43;;;;;;;;;;;;;;;15.26;59.37;96432.63;4223271;28;5694;-69
2022/11/15 09:42:10;;;;;;;;;;;;;;;15.26;59.40;96424.63;4227380;28;5663;-69
2022/11/15 09:44:39;;;;;;;;;;;;;;;15.28;59.33;96430.53;4221433;28;5589;-69
2022/11/15 09:46:55;;;;;;;;;;;;;;;15.29;59.03;96422.34;4222284;28;5622;-69
2022/11/15 09:49:02;;;;;;;;;;;;;;;15.33;58.88;96420.03;4233538;27;5746;-69
2022/11/15 09:51:15;;;;;;;;;;;;;;;15.34;58.94;96426.97;4234408;27;5590;-69
2022/11/15 09:53:23;;;;;;;;;;;;;;;15.36;58.72;96416.88;4231853;28;5663;-69
2022/11/15 09:55:51;;;;;;;;;;;;;;;15.36;58.71;96416.88;4233278;28;5505;-69
2022/11/15 09:58:04;;;;;;;;;;;;;;;15.36;58.42;96411.56;4234368;28;5656;-69
2022/11/15 10:00:22;;;;;;;;;;;;;;;15.38;58.51;96420.13;4232909;28;5700;-70
2022/11/15 10:03:04;;;;;;;;;;;;;;;15.40;58.25;96412.69;4227490;28;5664;-69
2022/11/15 10:05:11;;;;;;;;;;;;;;;15.41;58.30;96412.50;4232436;28;5699;-69
2022/11/15 10:07:19;;;;;;;;;;;;;;;15.41;58.10;96411.69;4234180;28;5681;-69
2022/11/15 10:09:27;;;;;;;;;;;;;;;15.43;58.13;96414.91;4227333;28;5764;-69
2022/11/15 10:11:34;;;;;;;;;;;;;;;15.43;57.92;96425.56;4229462;28;5757;-69
2022/11/15 10:13:46;;;;;;;;;;;;;;;15.44;58.03;96420.00;4215961;27;5674;-69
2022/11/15 10:15:50;;;;;;;;;;;;;;;15.46;57.98;96414.44;4228003;28;5698;-69
2022/11/15 10:18:15;;;;;;;;;;;;;;;15.47;58.09;96415.25;4234548;28;5730;-69
2022/11/15 10:20:22;;;;;;;;;;;;;;;15.50;57.90;96396.13;4233882;28;5886;-69
2022/11/15 10:22:31;;;;;;;;;;;;;;;15.51;57.98;96397.75;4234450;28;5628;-69
2022/11/15 10:24:38;;;;;;;;;;;;;;;15.51;57.86;96395.91;4231081;28;5685;-69
2022/11/15 10:26:47;;;;;;;;;;;;;;;15.53;57.85;96385.84;4234041;28;5764;-69
2022/11/15 10:28:51;;;;;;;;;;;;;;;15.54;57.86;96376.00;4234293;28;5598;-69
2022/11/15 10:30:56;;;;;;;;;;;;;;;15.55;57.67;96373.09;4233793;28;5738;-69
2022/11/15 10:33:10;;;;;;;;;;;;;;;15.56;57.74;96372.03;4233937;28;5659;-69
2022/11/15 10:35:23;;;;;;;;;;;;;;;15.58;57.68;96371.81;4234442;28;5661;-69
2022/11/15 10:37:30;;;;;;;;;;;;;;;15.58;57.51;96369.16;4229237;28;5784;-69
2022/11/15 10:39:35;;;;;;;;;;;;;;;15.59;57.66;96371.56;4226765;28;5677;-69
2022/11/15 10:41:40;;;;;;;;;;;;;;;15.60;57.52;96377.75;4228111;27;5660;-69
2022/11/15 10:43:43;;;;;;;;;;;;;;;15.59;57.70;96374.22;4229416;28;5594;-69
2022/11/15 10:45:49;;;;;;;;;;;;;;;15.60;57.67;96367.88;4227496;28;5793;-69
2022/11/15 10:47:52;;;;;;;;;;;;;;;15.61;57.67;96368.69;4232173;28;5681;-69
2022/11/15 10:50:08;;;;;;;;;;;;;;;15.59;57.50;96358.25;4217521;28;5697;-69
2022/11/15 10:52:19;;;;;;;;;;;;;;;15.60;57.71;96356.41;4225912;28;5674;-69
2022/11/15 10:54:25;;;;;;;;;;;;;;;15.61;57.47;96350.03;4233475;28;5816;-69
2022/11/15 10:56:28;;;;;;;;;;;;;;;15.60;57.65;96343.91;4233256;28;5689;-69
2022/11/15 10:58:37;;;;;;;;;;;;;;;15.62;57.75;96343.66;4233398;28;5659;-69
2022/11/15 11:00:41;;;;;;;;;;;;;;;15.62;57.75;96338.34;4224800;28;5704;-69
2022/11/15 11:02:58;;;;;;;;;;;;;;;15.63;57.76;96340.00;4228750;28;5685;-69
2022/11/15 11:05:02;;;;;;;;;;;;;;;15.64;57.80;96331.75;4228091;28;5866;-69
2022/11/15 11:07:21;;;;;;;;;;;;;;;15.65;57.64;96337.91;4230211;28;5610;-68
2022/11/15 11:09:31;;;;;;;;;;;;;;;15.64;57.89;96337.09;4225504;28;5602;-68
2022/11/15 11:11:46;;;;;;;;;;;;;;;15.66;57.97;96329.66;4227195;28;5684;-68
2022/11/15 11:13:49;;;;;;;;;;;;;;;15.66;57.84;96328.84;4224100;27;6437;-68
2022/11/15 11:16:00;;;;;;;;;;;;;;;15.67;57.89;96325.94;4232018;28;5913;-68
2022/11/15 11:18:15;;;;;;;;;;;;;;;15.69;57.95;96325.72;4224022;28;5791;-68
2022/11/15 11:20:24;;;;;;;;;;;;;;;15.69;57.85;96318.50;4231651;28;5730;-69
2022/11/15 11:22:33;;;;;;;;;;;;;;;15.70;58.03;96317.47;4232255;28;5768;-68
2022/11/15 11:24:44;;;;;;;;;;;;;;;15.70;57.92;96319.31;4232034;28;5726;-68
2022/11/15 11:27:00;;;;;;;;;;;;;;;15.72;57.88;96328.69;4233677;28;5786;-68
2022/11/15 11:29:11;;;;;;;;;;;;;;;15.70;58.03;96320.13;4233724;28;5805;-68
2022/11/15 11:31:26;;;;;;;;;;;;;;;15.70;57.79;96314.81;4232904;28;5614;-68
2022/11/15 11:33:34;;;;;;;;;;;;;;;15.72;58.05;96312.72;4229267;28;5805;-68
2022/11/15 11:35:46;;;;;;;;;;;;;;;15.71;57.97;96303.09;4228445;28;5165;-68
2022/11/15 11:37:52;;;;;;;;;;;;;;;15.72;58.20;96302.03;4226070;28;5683;-68
2022/11/15 11:40:07;;;;;;;;;;;;;;;15.73;57.89;96287.69;4228566;28;5664;-68
2022/11/15 11:42:24;;;;;;;;;;;;;;;15.74;57.95;96288.47;4234639;27;5681;-68
2022/11/15 11:44:38;;;;;;;;;;;;;;;15.71;58.00;96284.44;4235066;28;5785;-68
2022/11/15 11:46:52;;;;;;;;;;;;;;;15.75;58.11;96273.34;4232849;28;5606;-68
2022/11/15 11:49:02;;;;;;;;;;;;;;;15.75;57.95;96271.47;4221354;28;5758;-68
2022/11/15 11:51:13;;;;;;;;;;;;;;;15.75;58.08;96273.34;4226564;28;5196;-68
2022/11/15 11:53:26;;;;;;;;;;;;;;;15.75;58.17;96268.81;4232868;28;5804;-69
2022/11/15 11:55:33;;;;;;;;;;;;;;;15.75;58.08;96268.00;4233415;28;5921;-69
2022/11/15 11:57:44;;;;;;;;;;;;;;;15.75;58.02;96262.66;4236336;28;5621;-69
2022/11/15 11:59:54;;;;;;;;;;;;;;;15.73;58.06;96261.03;4236785;28;5881;-69
2022/11/15 12:01:58;;;;;;;;;;;;;;;15.75;58.23;96252.00;4236427;28;5075;-69
2022/11/15 12:04:06;;;;;;;;;;;;;;;15.76;58.07;96256.28;4236619;28;6331;-69
2022/11/15 12:06:21;;;;;;;;;;;;;;;15.75;58.09;96252.81;4224818;28;5673;-69
2022/11/15 12:08:32;;;;;;;;;;;;;;;15.76;58.04;96245.63;4219576;28;5768;-69
2022/11/15 12:10:37;;;;;;;;;;;;;;;15.75;58.14;96247.50;4225536;28;5610;-69
2022/11/15 12:12:49;;;;;;;;;;;;;;;15.76;58.13;96248.28;4224958;27;5681;-69
2022/11/15 12:14:56;;;;;;;;;;;;;;;15.74;58.18;96251.16;4228704;27;5795;-69
2022/11/15 12:16:59;;;;;;;;;;;;;;;15.74;58.17;96240.50;4235725;28;5651;-69
2022/11/15 12:19:05;;;;;;;;;;;;;;;15.75;58.11;96236.81;4231683;28;5752;-69
2022/11/15 12:21:17;;;;;;;;;;;;;;;15.76;58.32;96234.97;4225487;28;5598;-69
2022/11/15 12:23:24;;;;;;;;;;;;;;;15.76;58.17;96229.66;4233220;28;5684;-68
2022/11/15 12:25:31;;;;;;;;;;;;;;;15.77;58.37;96228.59;4220268;28;5632;-68
2022/11/15 12:27:38;;;;;;;;;;;;;;;15.75;58.16;96225.34;4232799;28;5621;-68
2022/11/15 12:29:48;;;;;;;;;;;;;;;15.78;58.18;96227.53;4235195;28;5661;-68
2022/11/15 12:31:55;;;;;;;;;;;;;;;15.78;58.42;96220.34;4230997;28;5614;-68
2022/11/15 12:33:59;;;;;;;;;;;;;;;15.79;58.26;96219.31;4228653;28;5666;-68
2022/11/15 12:36:13;;;;;;;;;;;;;;;15.80;58.24;96212.13;4227849;28;5824;-68
2022/11/15 12:38:53;;;;;;;;;;;;;;;15.80;58.44;96206.78;4234345;28;5619;-68
2022/11/15 12:41:21;;;;;;;;;;;;;;;15.80;58.37;96212.13;4235045;28;5602;-68
2022/11/15 12:43:42;;;;;;;;;;;;;;;15.80;58.49;96207.59;4210255;28;5601;-68
2022/11/15 12:45:46;;;;;;;;;;;;;;;15.80;58.56;96201.44;4234946;28;5614;-68
2022/11/15 12:47:49;;;;;;;;;;;;;;;15.82;58.49;96191.34;4233121;28;5743;-68
2022/11/15 12:49:53;;;;;;;;;;;;;;;15.83;58.50;96195.63;4231333;28;5764;-68
2022/11/15 12:52:08;;;;;;;;;;;;;;;15.83;58.75;96190.31;4227377;28;5660;-68
2022/11/15 12:54:44;;;;;;;;;;;;;;;15.84;58.73;96191.91;4230104;28;5711;-68
2022/11/15 12:57:25;;;;;;;;;;;;;;;15.85;58.73;96191.66;4225069;28;5606;-68
2022/11/15 12:59:50;;;;;;;;;;;;;;;15.85;59.02;96181.00;4235773;28;5625;-69
2022/11/15 13:02:02;;;;;;;;;;;;;;;15.85;58.86;96173.00;4219484;28;5726;-68
2022/11/15 13:04:26;;;;;;;;;;;;;;;15.86;58.97;96171.19;4226071;28;5652;-69
2022/11/15 13:06:39;;;;;;;;;;;;;;;15.86;58.93;96168.53;4235250;28;5772;-69
2022/11/15 13:08:50;;;;;;;;;;;;;;;15.86;59.08;96168.53;4228373;28;5659;-69
2022/11/15 13:10:54;;;;;;;;;;;;;;;15.87;59.30;96167.47;4224664;28;6291;-69
2022/11/15 13:13:00;;;;;;;;;;;;;;;15.87;59.21;96162.13;4220110;27;5737;-69
2022/11/15 13:15:50;;;;;;;;;;;;;;;15.87;59.35;96162.94;4231482;28;5599;-69
2022/11/15 13:17:55;;;;;;;;;;;;;;;15.87;59.26;96152.28;4230160;28;5781;-69
2022/11/15 13:20:01;;;;;;;;;;;;;;;15.88;59.24;96153.91;4235100;28;5651;-69
2022/11/15 13:24:26;;;;;;;;;;;;;;;15.88;59.47;96135.25;4226582;28;5682;-68
2022/11/15 13:26:29;;;;;;;;;;;;;;;15.87;59.30;96132.81;4235058;28;5708;-69
2022/11/15 13:28:37;;;;;;;;;;;;;;;15.88;59.48;96132.56;4235184;28;5587;-69
2022/11/15 13:30:40;;;;;;;;;;;;;;;15.89;59.64;96133.38;4231893;28;5622;-69
2022/11/15 13:32:42;;;;;;;;;;;;;;;15.89;59.54;96133.38;4224946;28;5756;-69
2022/11/15 13:34:49;;;;;;;;;;;;;;;15.90;59.63;96129.66;4228527;28;5594;-69
2022/11/15 13:36:55;;;;;;;;;;;;;;;15.91;59.60;96133.94;4226557;28;5761;-69
2022/11/15 13:39:01;;;;;;;;;;;;;;;15.91;59.86;96126.75;4225185;28;5392;-69
2022/11/15 13:41:18;;;;;;;;;;;;;;;15.93;59.73;96126.50;4226620;28;7885;-69
2022/11/15 13:43:29;;;;;;;;;;;;;;;15.93;59.72;96115.84;4227252;28;5613;-69
2022/11/15 13:45:32;;;;;;;;;;;;;;;15.93;59.67;96113.19;4221349;28;5837;-69
2022/11/15 13:47:35;;;;;;;;;;;;;;;15.93;59.73;96102.50;4228084;28;5601;-69
2022/11/15 13:49:39;;;;;;;;;;;;;;;15.93;59.81;96108.66;4234866;28;5594;-70
2022/11/15 13:51:47;;;;;;;;;;;;;;;15.93;59.77;96105.19;4234791;28;5075;-69
2022/11/15 13:53:55;;;;;;;;;;;;;;;15.93;60.06;96099.84;4232097;28;6284;-70
2022/11/15 13:55:59;;;;;;;;;;;;;;;15.93;59.96;96105.97;4233590;28;5745;-69
2022/11/15 13:58:06;;;;;;;;;;;;;;;15.93;60.11;96097.19;4233655;28;5614;-69
2022/11/15 14:00:27;;;;;;;;;;;;;;;15.93;60.10;96089.19;4233284;27;5695;-69
2022/11/15 14:02:32;;;;;;;;;;;;;;;15.95;60.10;96095.06;4227483;28;5601;-69
2022/11/15 14:04:40;;;;;;;;;;;;;;;15.95;60.06;96092.41;4234125;28;5980;-69
2022/11/15 14:06:52;;;;;;;;;;;;;;;15.94;60.08;96096.94;4228625;28;7091;-69
2022/11/15 14:09:27;;;;;;;;;;;;;;;15.94;60.26;96088.13;4217702;28;5617;-69
2022/11/15 14:11:33;;;;;;;;;;;;;;;15.94;60.08;96080.13;4220950;28;6287;-69
2022/11/15 14:13:36;;;;;;;;;;;;;;;15.94;60.23;96085.47;4228174;28;6362;-69
2022/11/15 14:15:40;;;;;;;;;;;;;;;15.94;60.39;96080.13;4233608;28;5653;-68
2022/11/15 14:17:44;;;;;;;;;;;;;;;15.95;60.32;96084.41;4233430;28;5606;-69
2022/11/15 14:19:52;;;;;;;;;;;;;;;15.94;60.40;96094.28;4221579;28;5881;-68
2022/11/15 14:22:20;;;;;;;;;;;;;;;15.94;60.45;96088.94;4217516;28;5941;-68
2022/11/15 14:24:23;;;;;;;;;;;;;;;15.95;60.28;96081.75;4217454;28;6388;-68
2022/11/15 14:26:29;;;;;;;;;;;;;;;15.94;60.51;96086.28;4231804;28;5684;-68
2022/11/15 14:28:38;;;;;;;;;;;;;;;15.94;60.53;96080.13;4233650;28;6425;-68
2022/11/15 14:30:43;;;;;;;;;;;;;;;15.94;60.67;96085.47;4225154;28;5405;-68
2022/11/15 14:32:49;;;;;;;;;;;;;;;15.93;60.76;96075.84;4234030;28;7639;-68
2022/11/15 14:34:56;;;;;;;;;;;;;;;15.93;60.53;96059.88;4234248;28;5590;-68
2022/11/15 14:36:59;;;;;;;;;;;;;;;15.93;60.83;96067.84;4234136;28;5681;-68
2022/11/15 14:39:05;;;;;;;;;;;;;;;15.95;60.74;96065.75;4233026;28;5824;-69
2022/11/15 14:41:17;;;;;;;;;;;;;;;15.94;60.65;96067.63;4211472;28;5800;-69
2022/11/15 14:43:21;;;;;;;;;;;;;;;15.94;60.71;96066.81;4223325;28;5708;-69
2022/11/15 14:45:24;;;;;;;;;;;;;;;15.95;60.70;96065.75;4224598;27;5606;-69
2022/11/15 14:47:27;;;;;;;;;;;;;;;15.95;60.86;96069.22;4232869;28;5731;-68
2022/11/15 14:49:30;;;;;;;;;;;;;;;15.95;60.93;96060.41;4233102;28;5669;-69
2022/11/15 14:51:33;;;;;;;;;;;;;;;15.96;60.88;96056.69;4216695;28;6299;-69
2022/11/15 14:53:36;;;;;;;;;;;;;;;15.96;61.04;96056.69;4217047;28;5658;-69
2022/11/15 14:55:40;;;;;;;;;;;;;;;15.95;60.93;96047.09;4227309;28;5606;-68
2022/11/15 14:57:43;;;;;;;;;;;;;;;15.95;60.89;96041.75;4229249;28;6380;-68
2022/11/15 14:59:46;;;;;;;;;;;;;;;15.95;60.97;96041.75;4234006;27;5590;-68
2022/11/15 15:01:48;;;;;;;;;;;;;;;15.92;60.99;96032.41;4229815;28;5680;-68
2022/11/15 15:03:53;;;;;;;;;;;;;;;15.92;60.94;96035.06;4219588;28;5844;-68
2022/11/15 15:05:57;;;;;;;;;;;;;;;15.92;60.96;96037.72;4220884;28;5683;-68
2022/11/15 15:08:00;;;;;;;;;;;;;;;15.91;60.99;96030.78;4219915;28;5700;-68
2022/11/15 15:10:04;;;;;;;;;;;;;;;15.90;60.97;96033.72;4233482;28;5621;-68
2022/11/15 15:12:29;;;;;;;;;;;;;;;15.89;60.98;96024.91;4236815;28;5597;-68
2022/11/15 15:14:31;;;;;;;;;;;;;;;15.89;61.07;96024.09;4230497;28;5602;-68
2022/11/15 15:16:34;;;;;;;;;;;;;;;15.88;61.05;96017.97;4224566;28;5763;-68
2022/11/15 15:18:37;;;;;;;;;;;;;;;15.87;61.14;96013.69;4221289;28;5733;-68
2022/11/15 15:20:42;;;;;;;;;;;;;;;15.85;61.26;96006.97;4228216;28;5816;-68
2022/11/15 15:22:45;;;;;;;;;;;;;;;15.86;61.04;96000.63;4224662;28;5609;-68
2022/11/15 15:24:49;;;;;;;;;;;;;;;15.85;61.16;95989.13;4225895;28;5698;-68
2022/11/15 15:26:51;;;;;;;;;;;;;;;15.84;61.06;95995.50;4225670;28;5715;-68
2022/11/15 15:28:56;;;;;;;;;;;;;;;15.84;61.04;95984.84;4223948;28;5594;-67
2022/11/15 15:30:58;;;;;;;;;;;;;;;15.84;61.24;95984.03;4233292;28;5610;-69
2022/11/15 15:33:01;;;;;;;;;;;;;;;15.83;61.23;95979.75;4224754;28;5668;-68
2022/11/15 15:35:04;;;;;;;;;;;;;;;15.81;61.00;95973.88;4231708;28;5611;-68
2022/11/15 15:37:09;;;;;;;;;;;;;;;15.81;61.32;95976.53;4228035;28;5590;-68
2022/11/15 15:39:12;;;;;;;;;;;;;;;15.81;61.15;95982.69;4236218;28;5696;-68
2022/11/15 15:41:17;;;;;;;;;;;;;;;15.80;61.22;95986.38;4236333;28;5602;-68
2022/11/15 15:43:19;;;;;;;;;;;;;;;15.78;61.34;95977.03;4234333;28;6311;-68
2022/11/15 15:45:25;;;;;;;;;;;;;;;15.80;61.27;95977.59;4228442;28;6025;-68
2022/11/15 15:47:28;;;;;;;;;;;;;;;15.79;61.34;95968.00;4236684;28;5711;-68
2022/11/15 15:49:31;;;;;;;;;;;;;;;15.80;61.51;95961.59;4234461;28;5652;-68
2022/11/15 15:51:34;;;;;;;;;;;;;;;15.80;61.42;95964.28;4224632;28;5624;-67
2022/11/15 15:53:39;;;;;;;;;;;;;;;15.79;61.33;95952.00;4226866;27;5737;-68
2022/11/15 15:55:42;;;;;;;;;;;;;;;15.78;61.35;95959.19;4235727;28;5586;-68
2022/11/15 15:57:45;;;;;;;;;;;;;;;15.78;61.40;95959.19;4227856;28;6541;-68
2022/11/15 15:59:51;;;;;;;;;;;;;;;15.79;61.50;95960.00;4229330;28;5829;-68
2022/11/15 16:01:55;;;;;;;;;;;;;;;15.78;61.57;95963.72;4230198;28;6554;-70
2022/11/15 16:03:58;;;;;;;;;;;;;;;15.77;61.40;95954.09;4225806;28;5729;-68
2022/11/15 16:06:04;;;;;;;;;;;;;;;15.77;61.67;95940.78;4232364;28;5855;-68
2022/11/15 16:08:19;;;;;;;;;;;;;;;15.75;61.57;95933.03;4234278;28;5632;-68
2022/11/15 16:10:24;;;;;;;;;;;;;;;15.75;61.70;95932.22;4231116;28;5875;-68
2022/11/15 16:12:28;;;;;;;;;;;;;;;15.75;61.71;95934.91;4232990;28;6306;-68
2022/11/15 16:14:31;;;;;;;;;;;;;;;15.73;61.85;95927.94;4233759;28;5638;-69
2022/11/15 16:16:34;;;;;;;;;;;;;;;15.73;61.76;95925.25;4228344;28;5764;-68
2022/11/15 16:18:38;;;;;;;;;;;;;;;15.72;61.74;95928.97;4226920;28;5857;-68
2022/11/15 16:20:44;;;;;;;;;;;;;;;15.72;61.89;95931.66;4228983;28;5701;-68
2022/11/15 16:22:46;;;;;;;;;;;;;;;15.72;62.10;95928.19;4222353;28;5598;-68
2022/11/15 16:24:49;;;;;;;;;;;;;;;15.72;62.02;95917.53;4227664;28;5780;-68
2022/11/15 16:26:52;;;;;;;;;;;;;;;15.71;61.93;95916.72;4227033;28;5928;-68
2022/11/15 16:28:55;;;;;;;;;;;;;;;15.71;61.99;95915.91;4225069;28;5609;-68
2022/11/15 16:31:03;;;;;;;;;;;;;;;15.71;62.00;95922.03;4227489;28;5601;-68
2022/11/15 16:33:06;;;;;;;;;;;;;;;15.70;62.09;95912.44;4227198;28;5709;-68
2022/11/15 16:35:13;;;;;;;;;;;;;;;15.71;62.08;95898.06;4227374;28;5680;-68
2022/11/15 16:37:23;;;;;;;;;;;;;;;15.70;62.19;95895.66;4231376;28;5590;-68
2022/11/15 16:39:27;;;;;;;;;;;;;;;15.70;62.15;95895.66;4226177;28;5610;-68
2022/11/15 16:41:30;;;;;;;;;;;;;;;15.69;62.10;95894.84;4225987;27;5620;-68
2022/11/15 16:43:33;;;;;;;;;;;;;;;15.68;61.95;95893.25;4231091;28;5870;-68
2022/11/15 16:45:36;;;;;;;;;;;;;;;15.69;62.34;95894.84;4232029;28;5805;-68
2022/11/15 16:47:39;;;;;;;;;;;;;;;15.67;62.14;95886.31;4228385;27;5624;-69
2022/11/15 16:49:43;;;;;;;;;;;;;;;15.67;62.31;95894.28;4228890;28;5849;-68
2022/11/15 16:51:49;;;;;;;;;;;;;;;15.68;62.25;95895.91;4226482;28;5656;-69
2022/11/15 16:53:51;;;;;;;;;;;;;;;15.68;62.19;95895.91;4229793;28;6408;-69
2022/11/15 16:55:55;;;;;;;;;;;;;;;15.67;62.33;95894.28;4226765;28;5690;-68
2022/11/15 16:57:58;;;;;;;;;;;;;;;15.65;62.38;95896.41;4231564;28;6384;-68
2022/11/15 17:00:01;;;;;;;;;;;;;;;15.67;62.25;95898.81;4227219;28;5778;-67
2022/11/15 17:02:04;;;;;;;;;;;;;;;15.66;62.23;95898.00;4223536;27;5779;-68
2022/11/15 17:04:12;;;;;;;;;;;;;;;15.66;62.38;95906.00;4229324;28;5598;-68
2022/11/15 17:06:17;;;;;;;;;;;;;;;15.67;62.33;95888.97;4234046;27;5747;-68
2022/11/15 17:08:23;;;;;;;;;;;;;;;15.65;62.53;95888.41;4228162;28;5709;-68
2022/11/15 17:10:26;;;;;;;;;;;;;;;15.67;62.39;95891.63;4207656;28;5647;-68
2022/11/15 17:12:30;;;;;;;;;;;;;;;15.67;62.43;95893.50;4229211;28;5622;-68
2022/11/15 17:14:33;;;;;;;;;;;;;;;15.67;62.48;95893.50;4220123;28;5681;-68
2022/11/15 17:16:37;;;;;;;;;;;;;;;15.67;62.53;95885.50;4230482;28;5693;-68
2022/11/15 17:18:41;;;;;;;;;;;;;;;15.66;62.55;95891.88;4224937;28;5717;-68
2022/11/15 17:20:44;;;;;;;;;;;;;;;15.65;62.55;95901.72;4225301;27;5772;-68
2022/11/15 17:22:47;;;;;;;;;;;;;;;15.66;62.43;95900.69;4218902;28;5725;-68
2022/11/15 17:24:51;;;;;;;;;;;;;;;15.66;62.59;95892.69;4223935;28;5680;-68
2022/11/15 17:26:53;;;;;;;;;;;;;;;15.66;62.49;95875.91;4218083;28;5748;-69
2022/11/15 17:28:57;;;;;;;;;;;;;;;15.66;62.58;95876.69;4221518;28;5688;-69
2022/11/15 17:31:00;;;;;;;;;;;;;;;15.65;62.53;95882.28;4227001;27;5609;-69
2022/11/15 17:33:04;;;;;;;;;;;;;;;15.64;62.51;95884.13;4229058;28;5828;-69
2022/11/15 17:35:07;;;;;;;;;;;;;;;15.63;62.62;95877.19;4223591;28;5736;-69
2022/11/15 17:37:17;;;;;;;;;;;;;;;15.65;62.51;95884.94;4224021;28;5845;-68
2022/11/15 17:39:20;;;;;;;;;;;;;;;15.64;62.73;95894.78;4223981;27;5794;-69
2022/11/15 17:41:24;;;;;;;;;;;;;;;15.64;62.80;95884.13;4229689;28;5725;-69
2022/11/15 17:43:27;;;;;;;;;;;;;;;15.66;62.61;95891.88;4206637;28;5612;-69
2022/11/15 17:45:30;;;;;;;;;;;;;;;15.66;62.61;95883.88;4222797;28;5618;-69
2022/11/15 17:47:32;;;;;;;;;;;;;;;15.66;62.75;95884.69;4222332;28;5063;-68
2022/11/15 17:49:38;;;;;;;;;;;;;;;15.67;62.64;95872.97;4222173;27;5603;-68
2022/11/15 17:51:41;;;;;;;;;;;;;;;15.67;62.58;95883.63;4228178;28;5677;-72
2022/11/15 17:53:50;;;;;;;;;;;;;;;15.67;62.74;95878.31;4225842;28;5617;-72
2022/11/15 17:55:55;;;;;;;;;;;;;;;15.66;62.72;95875.91;4221403;28;6759;-71
2022/11/15 17:57:59;;;;;;;;;;;;;;;15.66;62.83;95874.03;4223729;28;5789;-73
2022/11/15 18:00:03;;;;;;;;;;;;;;;15.65;62.93;95875.09;4225183;28;5805;-72
2022/11/15 18:02:06;;;;;;;;;;;;;;;15.66;62.73;95873.22;4224509;27;5784;-72
2022/11/15 18:04:10;;;;;;;;;;;;;;;15.65;62.79;95874.28;4222918;28;5839;-71
2022/11/15 18:06:13;;;;;;;;;;;;;;;15.64;62.90;95864.69;4218870;28;5617;-76
2022/11/15 18:08:16;;;;;;;;;;;;;;;15.62;62.84;95864.91;4228020;28;5610;-72